Time;durP1;ratioP1;P1;durP2;ratioP2;P2;SDS_P1;SDS_P2;PMS_P1;PMS_P2;Temp;Humidity;BMP_temperature;BMP_pressure;BME280_temperature;BME280_humidity;BME280_pressure;Samples;Min_cycle;Max_cycle;Signal;HPM_P1;HPM_P2
2022/05/26 00:00:50;;;;;;;;;0.00;0.00;;;;;;;;5121850;27;61750;-76
2022/05/26 00:03:16;;;;;;;;;1.50;0.00;;;;;;;;5122245;27;62951;-76
2022/05/26 00:05:41;;;;;;;;;1.00;1.00;;;;;;;;5121417;27;61941;-76
2022/05/26 00:08:07;;;;;;;;;0.00;0.00;;;;;;;;5122594;27;61836;-75
2022/05/26 00:10:34;;;;;;;;;1.00;1.00;;;;;;;;5122957;27;62219;-75
2022/05/26 00:12:59;;;;;;;;;0.00;0.00;;;;;;;;5122049;27;62128;-75
2022/05/26 00:15:25;;;;;;;;;0.00;0.00;;;;;;;;5122502;27;61799;-77
2022/05/26 00:17:50;;;;;;;;;0.00;0.00;;;;;;;;5122846;27;61993;-75
2022/05/26 00:20:15;;;;;;;;;0.00;0.00;;;;;;;;5123101;27;62236;-76
2022/05/26 00:22:40;;;;;;;;;2.00;0.00;;;;;;;;5122068;27;61809;-75
2022/05/26 00:25:06;;;;;;;;;3.00;0.00;;;;;;;;5122273;27;63346;-76
2022/05/26 00:27:31;;;;;;;;;0.00;0.00;;;;;;;;5123457;27;62225;-75
2022/05/26 00:29:57;;;;;;;;;1.00;0.00;;;;;;;;5126609;27;61871;-75
2022/05/26 00:32:22;;;;;;;;;0.00;0.00;;;;;;;;5125560;27;62050;-75
2022/05/26 00:34:47;;;;;;;;;0.00;0.00;;;;;;;;5124215;27;61857;-75
2022/05/26 00:37:12;;;;;;;;;0.25;0.25;;;;;;;;5103673;27;62221;-76
2022/05/26 00:39:38;;;;;;;;;0.00;0.00;;;;;;;;5104428;27;61871;-75
2022/05/26 00:42:05;;;;;;;;;0.00;0.00;;;;;;;;5119214;27;62002;-75
2022/05/26 00:44:32;;;;;;;;;1.00;0.00;;;;;;;;5126021;27;62260;-75
2022/05/26 00:47:13;;;;;;;;;0.75;0.00;;;;;;;;5126018;27;61977;-76
2022/05/26 00:49:54;;;;;;;;;0.00;0.00;;;;;;;;5126329;27;61857;-75
2022/05/26 00:52:26;;;;;;;;;1.00;0.00;;;;;;;;5125186;27;61682;-76
2022/05/26 00:54:53;;;;;;;;;0.00;0.00;;;;;;;;5125483;27;61884;-76
2022/05/26 00:57:21;;;;;;;;;0.00;0.00;;;;;;;;5125522;27;61933;-75
2022/05/26 00:59:50;;;;;;;;;0.00;0.00;;;;;;;;5126347;27;61903;-75
2022/05/26 01:02:17;;;;;;;;;0.00;0.00;;;;;;;;5125271;27;61728;-75
2022/05/26 01:04:47;;;;;;;;;0.00;0.00;;;;;;;;5125799;27;62199;-76
2022/05/26 01:07:12;;;;;;;;;0.00;0.00;;;;;;;;5125185;27;61804;-76
2022/05/26 01:09:37;;;;;;;;;0.00;0.00;;;;;;;;5125825;27;61962;-76
2022/05/26 01:12:03;;;;;;;;;0.00;0.00;;;;;;;;5124820;27;62192;-76
2022/05/26 01:14:31;;;;;;;;;0.00;0.00;;;;;;;;5124096;27;61725;-76
2022/05/26 01:16:56;;;;;;;;;0.00;0.00;;;;;;;;5124534;27;61802;-76
2022/05/26 01:19:40;;;;;;;;;0.00;0.00;;;;;;;;5125809;27;61784;-76
2022/05/26 01:22:11;;;;;;;;;2.50;0.00;;;;;;;;5124753;27;62779;-76
2022/05/26 01:24:38;;;;;;;;;0.00;0.00;;;;;;;;5125358;27;61749;-76
2022/05/26 01:27:22;;;;;;;;;1.00;0.00;;;;;;;;5125295;27;61934;-75
2022/05/26 01:30:02;;;;;;;;;0.50;0.00;;;;;;;;5124208;27;61701;-75
2022/05/26 01:32:30;;;;;;;;;1.00;0.00;;;;;;;;5124568;27;61889;-75
2022/05/26 01:35:20;;;;;;;;;1.00;0.00;;;;;;;;5122132;27;61658;-75
2022/05/26 01:37:58;;;;;;;;;0.00;0.00;;;;;;;;5102900;27;61803;-75
2022/05/26 01:40:42;;;;;;;;;0.00;0.00;;;;;;;;5104191;27;61915;-75
2022/05/26 01:43:26;;;;;;;;;0.75;0.00;;;;;;;;5124879;27;61811;-75
2022/05/26 01:45:59;;;;;;;;;1.00;0.00;;;;;;;;5123550;27;62146;-75
2022/05/26 01:48:31;;;;;;;;;3.00;0.00;;;;;;;;5125322;27;61831;-75
2022/05/26 01:51:03;;;;;;;;;0.00;0.00;;;;;;;;5125339;27;61784;-75
2022/05/26 01:53:43;;;;;;;;;0.00;0.00;;;;;;;;5124149;27;62795;-75
2022/05/26 01:56:28;;;;;;;;;0.00;0.00;;;;;;;;5125302;27;61991;-75
2022/05/26 01:58:57;;;;;;;;;2.00;0.00;;;;;;;;5125078;27;61899;-75
2022/05/26 02:01:24;;;;;;;;;1.00;0.00;;;;;;;;5123924;27;62007;-75
2022/05/26 02:03:51;;;;;;;;;0.00;0.00;;;;;;;;5123930;27;62058;-75
2022/05/26 02:06:22;;;;;;;;;2.25;0.00;;;;;;;;5124932;27;61857;-76
2022/05/26 02:08:59;;;;;;;;;1.00;0.00;;;;;;;;5124427;27;61779;-75
2022/05/26 02:11:26;;;;;;;;;0.00;0.00;;;;;;;;5123411;27;61909;-75
2022/05/26 02:13:56;;;;;;;;;0.00;0.00;;;;;;;;5124110;27;62383;-75
2022/05/26 02:16:25;;;;;;;;;2.00;0.00;;;;;;;;5124569;27;61697;-75
2022/05/26 02:18:59;;;;;;;;;0.00;0.00;;;;;;;;5124317;27;61687;-76
2022/05/26 02:21:32;;;;;;;;;0.00;0.00;;;;;;;;5125035;27;62105;-76
2022/05/26 02:24:05;;;;;;;;;0.75;0.00;;;;;;;;5123943;27;63208;-75
2022/05/26 02:26:31;;;;;;;;;1.00;0.00;;;;;;;;5124248;27;61895;-75
2022/05/26 02:31:41;;;;;;;;;0.00;0.00;;;;;;;;5124531;27;62314;-75
2022/05/26 02:34:08;;;;;;;;;2.00;0.00;;;;;;;;5122355;27;63933;-76
2022/05/26 02:36:35;;;;;;;;;0.00;0.00;;;;;;;;5119342;27;61841;-75
2022/05/26 02:39:00;;;;;;;;;0.00;0.00;;;;;;;;5103288;27;61702;-75
2022/05/26 02:41:26;;;;;;;;;0.00;0.00;;;;;;;;5112821;27;61740;-75
2022/05/26 02:43:51;;;;;;;;;0.00;0.00;;;;;;;;5123397;27;61783;-76
2022/05/26 02:46:17;;;;;;;;;0.00;0.00;;;;;;;;5124289;27;61757;-75
2022/05/26 02:48:42;;;;;;;;;0.00;0.00;;;;;;;;5124023;27;61800;-76
2022/05/26 02:51:26;;;;;;;;;0.00;0.00;;;;;;;;5121910;27;62043;-75
2022/05/26 02:53:51;;;;;;;;;2.00;0.00;;;;;;;;5122981;27;61912;-75
2022/05/26 02:56:45;;;;;;;;;0.00;0.00;;;;;;;;5123694;27;62258;-75
2022/05/26 02:59:16;;;;;;;;;0.00;0.00;;;;;;;;5121651;27;62084;-75
2022/05/26 03:01:53;;;;;;;;;0.00;0.00;;;;;;;;5123994;27;61655;-75
2022/05/26 03:04:22;;;;;;;;;0.00;0.00;;;;;;;;5121860;27;63734;-75
2022/05/26 03:06:52;;;;;;;;;1.00;0.00;;;;;;;;5122606;27;62292;-75
2022/05/26 03:09:19;;;;;;;;;0.50;0.00;;;;;;;;5122128;27;62282;-75
2022/05/26 03:11:44;;;;;;;;;0.00;0.00;;;;;;;;5123688;27;61819;-75
2022/05/26 03:14:09;;;;;;;;;0.00;0.00;;;;;;;;5121842;27;63457;-75
2022/05/26 03:16:35;;;;;;;;;1.00;0.00;;;;;;;;5123526;27;61728;-75
2022/05/26 03:19:00;;;;;;;;;0.00;0.00;;;;;;;;5123532;27;61819;-75
2022/05/26 03:21:25;;;;;;;;;0.00;0.00;;;;;;;;5124033;27;61737;-75
2022/05/26 03:23:50;;;;;;;;;0.00;0.00;;;;;;;;5123044;27;62652;-75
2022/05/26 03:26:16;;;;;;;;;0.00;0.00;;;;;;;;5123379;27;61866;-75
2022/05/26 03:28:41;;;;;;;;;0.00;0.00;;;;;;;;5122436;27;61782;-75
2022/05/26 03:31:08;;;;;;;;;0.00;0.00;;;;;;;;5123467;27;61950;-76
2022/05/26 03:40:46;;;;;;;;;0.00;0.00;;;;;;;;5121627;27;63848;-75
2022/05/26 03:41:46;;;;;;;;;0.00;0.00;;;;;;;;5123408;27;62015;-75
2022/05/26 03:44:12;;;;;;;;;0.00;0.00;;;;;;;;5122829;27;61908;-75
2022/05/26 03:46:38;;;;;;;;;0.00;0.00;;;;;;;;5123047;27;61717;-75
2022/05/26 03:49:04;;;;;;;;;0.00;0.00;;;;;;;;5123193;27;62087;-75
2022/05/26 03:51:29;;;;;;;;;1.25;0.00;;;;;;;;5122087;27;61753;-75
2022/05/26 03:53:54;;;;;;;;;0.00;0.00;;;;;;;;5122373;27;62084;-75
2022/05/26 03:56:19;;;;;;;;;0.00;0.00;;;;;;;;5123062;27;61901;-75
2022/05/26 03:58:45;;;;;;;;;0.50;0.00;;;;;;;;5123233;27;61737;-75
2022/05/26 04:01:10;;;;;;;;;0.00;0.00;;;;;;;;5122932;27;61894;-75
2022/05/26 04:03:35;;;;;;;;;0.00;0.00;;;;;;;;5125013;27;61690;-75
2022/05/26 04:06:01;;;;;;;;;0.50;0.50;;;;;;;;5125294;27;61944;-75
2022/05/26 04:08:26;;;;;;;;;0.00;0.00;;;;;;;;5126498;27;61974;-75
2022/05/26 04:10:51;;;;;;;;;0.00;0.00;;;;;;;;5126656;27;61808;-75
2022/05/26 04:13:17;;;;;;;;;0.00;0.00;;;;;;;;5125647;27;61716;-75
2022/05/26 04:15:42;;;;;;;;;0.50;0.50;;;;;;;;5124845;27;61670;-75
2022/05/26 04:18:07;;;;;;;;;0.00;0.00;;;;;;;;5126496;27;61889;-75
2022/05/26 04:20:33;;;;;;;;;3.00;0.00;;;;;;;;5125393;27;61917;-75
2022/05/26 04:22:58;;;;;;;;;0.00;0.00;;;;;;;;5125638;27;62606;-75
2022/05/26 04:25:25;;;;;;;;;2.00;1.00;;;;;;;;5126169;27;62125;-75
2022/05/26 04:27:53;;;;;;;;;4.00;0.00;;;;;;;;5126428;27;61891;-75
2022/05/26 04:30:18;;;;;;;;;0.00;0.00;;;;;;;;5126288;27;61850;-75
2022/05/26 04:32:44;;;;;;;;;0.00;0.00;;;;;;;;5125773;27;62879;-75
2022/05/26 04:35:09;;;;;;;;;0.00;0.00;;;;;;;;5126128;27;61792;-75
2022/05/26 04:37:35;;;;;;;;;1.25;0.25;;;;;;;;5121054;27;62049;-75
2022/05/26 04:40:01;;;;;;;;;0.00;0.00;;;;;;;;5121766;27;62083;-75
2022/05/26 04:42:26;;;;;;;;;1.00;1.00;;;;;;;;5122042;27;61712;-75
2022/05/26 04:44:52;;;;;;;;;0.00;0.00;;;;;;;;5125964;27;61842;-75
2022/05/26 04:47:17;;;;;;;;;3.50;1.25;;;;;;;;5126000;27;61693;-75
2022/05/26 04:49:43;;;;;;;;;0.00;0.00;;;;;;;;5126263;27;62071;-75
2022/05/26 04:52:09;;;;;;;;;0.00;0.00;;;;;;;;5125105;27;63073;-75
2022/05/26 04:54:38;;;;;;;;;1.50;0.00;;;;;;;;5125831;27;62190;-75
2022/05/26 04:57:05;;;;;;;;;0.00;0.00;;;;;;;;5125528;27;62206;-75
2022/05/26 04:59:32;;;;;;;;;0.00;0.00;;;;;;;;5125867;27;61687;-75
2022/05/26 05:01:57;;;;;;;;;0.50;0.50;;;;;;;;5124016;27;63886;-75
2022/05/26 05:04:24;;;;;;;;;0.00;0.00;;;;;;;;5125561;27;61900;-75
2022/05/26 05:06:50;;;;;;;;;0.00;0.00;;;;;;;;5124276;27;62105;-75
2022/05/26 05:09:15;;;;;;;;;1.75;0.00;;;;;;;;5125136;27;61871;-75
2022/05/26 05:11:40;;;;;;;;;0.00;0.00;;;;;;;;5124440;27;62689;-75
2022/05/26 05:14:05;;;;;;;;;2.00;0.00;;;;;;;;5124365;27;61790;-75
2022/05/26 05:16:34;;;;;;;;;0.00;0.00;;;;;;;;5125610;27;61729;-75
2022/05/26 05:18:59;;;;;;;;;0.00;0.00;;;;;;;;5125767;27;62153;-75
2022/05/26 05:21:29;;;;;;;;;1.00;1.00;;;;;;;;5123597;27;64848;-75
2022/05/26 05:23:58;;;;;;;;;0.75;0.75;;;;;;;;5124062;27;61860;-75
2022/05/26 05:26:24;;;;;;;;;0.75;0.00;;;;;;;;5125165;27;61740;-75
2022/05/26 05:28:52;;;;;;;;;0.00;0.00;;;;;;;;5125651;27;61752;-75
2022/05/26 05:31:20;;;;;;;;;0.50;0.50;;;;;;;;5124892;27;62747;-75
2022/05/26 05:33:48;;;;;;;;;0.75;0.00;;;;;;;;5125331;27;62030;-75
2022/05/26 05:36:19;;;;;;;;;0.00;0.00;;;;;;;;5117382;27;62056;-76
2022/05/26 05:38:44;;;;;;;;;0.00;0.00;;;;;;;;5104579;27;61672;-75
2022/05/26 05:41:10;;;;;;;;;0.00;0.00;;;;;;;;5110505;27;62459;-75
2022/05/26 05:43:36;;;;;;;;;3.00;0.00;;;;;;;;5125127;27;61830;-75
2022/05/26 05:46:01;;;;;;;;;0.00;0.00;;;;;;;;5125288;27;61629;-75
2022/05/26 05:48:27;;;;;;;;;0.00;0.00;;;;;;;;5125009;27;61947;-75
2022/05/26 05:50:52;;;;;;;;;0.00;0.00;;;;;;;;5124750;27;62760;-75
2022/05/26 05:53:18;;;;;;;;;0.00;0.00;;;;;;;;5118257;27;61775;-75
2022/05/26 05:55:44;;;;;;;;;0.00;0.00;;;;;;;;5123071;27;62071;-76
2022/05/26 05:58:10;;;;;;;;;1.50;0.00;;;;;;;;5125133;27;61762;-76
2022/05/26 06:00:36;;;;;;;;;2.00;0.00;;;;;;;;5124195;27;61831;-76
2022/05/26 06:03:01;;;;;;;;;1.00;0.00;;;;;;;;5124864;27;61925;-77
2022/05/26 06:05:27;;;;;;;;;0.00;0.00;;;;;;;;5123691;27;61813;-76
2022/05/26 06:07:52;;;;;;;;;0.00;0.00;;;;;;;;5124083;27;62105;-76
2022/05/26 06:10:17;;;;;;;;;0.00;0.00;;;;;;;;5123708;27;62766;-76
2022/05/26 06:12:43;;;;;;;;;0.25;0.25;;;;;;;;5124520;27;62184;-76
2022/05/26 06:15:09;;;;;;;;;0.00;0.00;;;;;;;;5124728;27;61680;-76
2022/05/26 06:17:34;;;;;;;;;0.00;0.00;;;;;;;;5124895;27;61664;-76
2022/05/26 06:20:00;;;;;;;;;0.00;0.00;;;;;;;;5122919;27;62189;-76
2022/05/26 06:22:25;;;;;;;;;0.00;0.00;;;;;;;;5123896;27;61824;-76
2022/05/26 06:24:51;;;;;;;;;0.00;0.00;;;;;;;;5123635;27;61955;-76
2022/05/26 06:30:03;;;;;;;;;0.00;0.00;;;;;;;;5121976;27;62075;-76
2022/05/26 06:37:57;;;;;;;;;0.00;0.00;;;;;;;;5103508;27;61843;-77
2022/05/26 06:40:22;;;;;;;;;0.00;0.00;;;;;;;;5109408;27;62121;-76
2022/05/26 06:42:48;;;;;;;;;0.00;0.00;;;;;;;;5124008;27;61839;-76
2022/05/26 06:45:15;;;;;;;;;0.00;0.00;;;;;;;;5124298;27;62237;-76
2022/05/26 06:47:40;;;;;;;;;0.00;0.00;;;;;;;;5123534;27;62094;-76
2022/05/26 06:50:06;;;;;;;;;0.00;0.00;;;;;;;;5123117;27;61934;-76
2022/05/26 06:52:31;;;;;;;;;0.00;0.00;;;;;;;;5121871;27;62110;-75
2022/05/26 06:54:58;;;;;;;;;0.00;0.00;;;;;;;;5122215;27;61788;-76
2022/05/26 06:57:24;;;;;;;;;0.50;0.00;;;;;;;;5120008;27;62052;-76
2022/05/26 06:59:50;;;;;;;;;0.00;0.00;;;;;;;;5122256;27;61809;-76
2022/05/26 07:02:16;;;;;;;;;0.00;0.00;;;;;;;;5122885;27;61639;-76
2022/05/26 07:04:42;;;;;;;;;0.00;0.00;;;;;;;;5122924;27;61805;-76
2022/05/26 07:07:08;;;;;;;;;0.00;0.00;;;;;;;;5122899;27;61901;-77
2022/05/26 07:09:33;;;;;;;;;0.00;0.00;;;;;;;;5122036;27;61936;-76
2022/05/26 07:11:59;;;;;;;;;0.00;0.00;;;;;;;;5118951;27;61771;-74
2022/05/26 07:14:25;;;;;;;;;0.00;0.00;;;;;;;;5123219;27;61823;-78
2022/05/26 07:16:50;;;;;;;;;2.00;0.25;;;;;;;;5121905;27;61829;-77
2022/05/26 07:19:16;;;;;;;;;0.50;0.00;;;;;;;;5123266;27;62095;-76
2022/05/26 07:21:46;;;;;;;;;2.00;0.00;;;;;;;;5123660;27;62372;-76
2022/05/26 07:24:12;;;;;;;;;0.00;0.00;;;;;;;;5123193;27;61983;-77
2022/05/26 07:26:37;;;;;;;;;0.00;0.00;;;;;;;;5123178;27;62143;-81
2022/05/26 07:29:03;;;;;;;;;0.00;0.00;;;;;;;;5122757;27;62950;-77
2022/05/26 07:31:28;;;;;;;;;0.00;0.00;;;;;;;;5122829;27;62029;-76
2022/05/26 07:33:54;;;;;;;;;0.00;0.00;;;;;;;;5123143;27;61982;-77
2022/05/26 07:41:49;;;;;;;;;2.00;1.00;;;;;;;;5129925;27;61994;-77
2022/05/26 07:44:16;;;;;;;;;1.75;0.75;;;;;;;;5129000;27;62035;-76
2022/05/26 07:46:41;;;;;;;;;4.75;1.25;;;;;;;;5130360;27;61915;-77
2022/05/26 07:49:08;;;;;;;;;0.50;0.50;;;;;;;;5129379;27;61989;-77
2022/05/26 07:51:33;;;;;;;;;1.25;1.00;;;;;;;;5130473;27;61882;-76
2022/05/26 07:54:00;;;;;;;;;0.00;0.00;;;;;;;;5123135;27;61811;-77
2022/05/26 07:56:32;;;;;;;;;1.00;1.00;;;;;;;;5128261;27;62008;-77
2022/05/26 07:58:57;;;;;;;;;0.75;0.75;;;;;;;;5128764;27;61651;-77
2022/05/26 08:01:22;;;;;;;;;4.00;2.00;;;;;;;;5127805;27;62173;-77
2022/05/26 08:03:53;;;;;;;;;0.50;0.25;;;;;;;;5129572;27;62265;-76
2022/05/26 08:06:18;;;;;;;;;1.00;1.00;;;;;;;;5129931;27;61830;-76
2022/05/26 08:08:43;;;;;;;;;1.00;1.00;;;;;;;;5128712;27;62013;-77
2022/05/26 08:11:08;;;;;;;;;3.75;2.25;;;;;;;;5129172;27;62385;-76
2022/05/26 08:13:34;;;;;;;;;1.00;1.00;;;;;;;;5130046;27;61868;-76
2022/05/26 08:15:59;;;;;;;;;3.75;2.00;;;;;;;;5129592;27;61855;-75
2022/05/26 08:18:25;;;;;;;;;1.00;1.00;;;;;;;;5129073;27;61995;-76
2022/05/26 08:20:50;;;;;;;;;1.50;1.50;;;;;;;;5128075;27;61913;-76
2022/05/26 08:23:16;;;;;;;;;0.50;0.50;;;;;;;;5129055;27;61755;-76
2022/05/26 08:25:41;;;;;;;;;3.50;1.75;;;;;;;;5128476;27;61850;-76
2022/05/26 08:28:06;;;;;;;;;2.00;1.00;;;;;;;;5126565;27;63709;-76
2022/05/26 08:30:32;;;;;;;;;1.00;1.00;;;;;;;;5129221;27;62135;-76
2022/05/26 08:32:57;;;;;;;;;1.25;1.25;;;;;;;;5129302;27;61947;-76
2022/05/26 08:35:23;;;;;;;;;0.75;0.50;;;;;;;;5127720;27;62244;-76
2022/05/26 08:37:49;;;;;;;;;1.50;1.50;;;;;;;;5128262;27;61859;-76
2022/05/26 08:40:53;;;;;;;;;1.00;1.00;;;;;;;;5129239;27;61835;-76
2022/05/26 08:43:20;;;;;;;;;1.75;1.25;;;;;;;;5045490;28;61908;-76
2022/05/26 08:45:47;;;;;;;;;1.00;1.00;;;;;;;;5045751;28;61783;-76
2022/05/26 08:48:15;;;;;;;;;0.50;0.50;;;;;;;;5027438;28;63834;-76
2022/05/26 08:50:41;;;;;;;;;1.50;0.00;;;;;;;;5058143;28;62073;-76
2022/05/26 08:53:08;;;;;;;;;1.00;1.00;;;;;;;;5058406;28;62025;-77
2022/05/26 08:55:34;;;;;;;;;2.00;2.00;;;;;;;;5059326;28;61923;-77
2022/05/26 08:58:06;;;;;;;;;1.00;1.00;;;;;;;;5060712;28;61829;-78
2022/05/26 09:00:32;;;;;;;;;0.75;0.75;;;;;;;;5061367;28;61936;-76
2022/05/26 09:02:59;;;;;;;;;1.50;1.00;;;;;;;;5061068;28;62374;-77
2022/05/26 09:05:25;;;;;;;;;1.25;1.25;;;;;;;;5061688;28;62323;-77
2022/05/26 09:13:26;;;;;;;;;2.00;0.75;;;;;;;;5070841;27;62107;-76
2022/05/26 09:15:51;;;;;;;;;1.25;1.25;;;;;;;;5118693;27;61798;-76
2022/05/26 09:18:19;;;;;;;;;1.00;1.00;;;;;;;;5122874;27;63866;-75
2022/05/26 09:20:49;;;;;;;;;1.00;1.00;;;;;;;;5125035;27;61764;-76
2022/05/26 09:23:25;;;;;;;;;1.00;1.00;;;;;;;;5123468;27;61925;-79
2022/05/26 09:25:52;;;;;;;;;1.00;1.00;;;;;;;;5125188;27;61854;-78
2022/05/26 09:28:36;;;;;;;;;1.00;1.00;;;;;;;;5124522;27;62721;-78
2022/05/26 09:31:18;;;;;;;;;2.00;0.25;;;;;;;;5125275;27;61914;-78
2022/05/26 09:33:43;;;;;;;;;1.00;1.00;;;;;;;;5124302;27;61857;-77
2022/05/26 09:36:26;;;;;;;;;1.25;1.25;;;;;;;;5120374;27;62022;-77
2022/05/26 09:38:52;;;;;;;;;1.50;1.00;;;;;;;;5103637;27;62577;-78
2022/05/26 09:41:17;;;;;;;;;1.00;1.00;;;;;;;;5121980;27;61971;-78
2022/05/26 09:43:48;;;;;;;;;2.50;2.00;;;;;;;;5123252;27;61862;-78
2022/05/26 09:46:15;;;;;;;;;2.00;1.00;;;;;;;;5122559;27;61665;-77
2022/05/26 09:48:43;;;;;;;;;1.00;1.00;;;;;;;;5120410;27;64311;-76
2022/05/26 09:51:23;;;;;;;;;1.75;0.75;;;;;;;;5122822;27;61854;-80
2022/05/26 09:53:52;;;;;;;;;0.00;0.00;;;;;;;;5122700;27;62142;-83
2022/05/26 09:56:31;;;;;;;;;0.25;0.25;;;;;;;;5122869;27;61976;-82
2022/05/26 09:58:57;;;;;;;;;1.50;0.50;;;;;;;;5122629;27;61893;-82
2022/05/26 10:01:26;;;;;;;;;1.00;1.00;;;;;;;;5122411;27;61959;-82
2022/05/26 10:04:09;;;;;;;;;2.00;1.00;;;;;;;;5123446;27;62023;-81
2022/05/26 10:06:42;;;;;;;;;0.00;0.00;;;;;;;;5122496;27;61764;-77
2022/05/26 10:09:16;;;;;;;;;1.25;1.00;;;;;;;;5122246;27;63443;-75
2022/05/26 10:11:57;;;;;;;;;1.75;1.00;;;;;;;;5123970;27;61890;-75
2022/05/26 10:14:22;;;;;;;;;0.00;0.00;;;;;;;;5123926;27;61814;-75
2022/05/26 10:17:03;;;;;;;;;0.00;0.00;;;;;;;;5123582;27;61778;-75
2022/05/26 10:19:31;;;;;;;;;0.25;0.25;;;;;;;;5123500;27;61858;-75
2022/05/26 10:22:08;;;;;;;;;0.25;0.00;;;;;;;;5122818;27;61811;-75
2022/05/26 10:24:39;;;;;;;;;0.00;0.00;;;;;;;;5124275;27;62038;-74
2022/05/26 10:27:23;;;;;;;;;2.75;0.50;;;;;;;;5124454;27;61709;-84
2022/05/26 10:30:04;;;;;;;;;0.50;0.50;;;;;;;;5123675;27;61766;-75
2022/05/26 10:32:42;;;;;;;;;0.00;0.00;;;;;;;;5123280;27;61845;-74
2022/05/26 10:35:07;;;;;;;;;0.00;0.00;;;;;;;;5122814;27;62022;-74
2022/05/26 10:37:38;;;;;;;;;0.00;0.00;;;;;;;;5123657;27;62027;-74
2022/05/26 10:40:14;;;;;;;;;1.50;0.75;;;;;;;;5123625;27;62063;-75
2022/05/26 10:42:45;;;;;;;;;0.00;0.00;;;;;;;;5123755;27;61671;-75
2022/05/26 10:45:13;;;;;;;;;1.50;0.50;;;;;;;;5124334;27;61918;-75
2022/05/26 10:47:45;;;;;;;;;1.00;0.00;;;;;;;;5122669;27;62119;-75
2022/05/26 10:50:27;;;;;;;;;0.00;0.00;;;;;;;;5123568;27;61743;-75
2022/05/26 10:52:59;;;;;;;;;1.00;0.00;;;;;;;;5123872;27;61754;-76
2022/05/26 10:55:45;;;;;;;;;0.00;0.00;;;;;;;;5123900;27;61814;-75
2022/05/26 10:58:16;;;;;;;;;1.00;0.00;;;;;;;;5043252;28;62026;-75
2022/05/26 11:00:41;;;;;;;;;0.00;0.00;;;;;;;;5059301;28;62868;-75
2022/05/26 11:03:19;;;;;;;;;1.25;0.00;;;;;;;;5059841;28;61883;-75
2022/05/26 11:05:48;;;;;;;;;0.00;0.00;;;;;;;;5060237;28;62065;-75
2022/05/26 11:08:14;;;;;;;;;0.33;0.00;;;;;;;;5059533;28;62373;-75
2022/05/26 11:10:43;;;;;;;;;2.00;1.00;;;;;;;;5058757;28;62691;-75
2022/05/26 11:13:13;;;;;;;;;1.50;0.50;;;;;;;;5058631;28;62038;-75
2022/05/26 11:18:37;;;;;;;;;0.50;0.50;;;;;;;;5059784;28;61772;-75
2022/05/26 11:21:02;;;;;;;;;1.00;1.00;;;;;;;;5059150;28;62011;-75
2022/05/26 11:23:31;;;;;;;;;1.00;0.00;;;;;;;;5042825;28;63313;-75
2022/05/26 11:26:02;;;;;;;;;0.00;0.00;;;;;;;;5059485;28;61941;-75
2022/05/26 11:28:34;;;;;;;;;0.00;0.00;;;;;;;;5059314;28;61831;-75
2022/05/26 11:36:48;;;;;;;;;0.00;0.00;;;;;;;;5123236;27;61903;-75
2022/05/26 11:39:29;;;;;;;;;0.00;0.00;;;;;;;;5121753;27;62103;-75
2022/05/26 11:42:03;;;;;;;;;0.00;0.00;;;;;;;;5121230;27;64015;-75
2022/05/26 11:44:48;;;;;;;;;0.00;0.00;;;;;;;;5123033;27;61954;-75
2022/05/26 11:47:26;;;;;;;;;0.00;0.00;;;;;;;;5059269;28;61802;-75
2022/05/26 11:49:51;;;;;;;;;0.00;0.00;;;;;;;;5059471;28;61794;-75
2022/05/26 11:52:31;;;;;;;;;0.00;0.00;;;;;;;;5058737;28;62125;-75
2022/05/26 11:55:01;;;;;;;;;0.00;0.00;;;;;;;;5042224;28;61957;-75
2022/05/26 11:57:38;;;;;;;;;0.00;0.00;;;;;;;;5059048;28;62074;-75
2022/05/26 12:00:15;;;;;;;;;0.00;0.00;;;;;;;;5059474;28;61763;-76
2022/05/26 12:02:42;;;;;;;;;0.00;0.00;;;;;;;;5058453;28;61880;-75
2022/05/26 12:05:25;;;;;;;;;2.00;0.00;;;;;;;;5059099;28;61846;-75
2022/05/26 12:07:51;;;;;;;;;0.00;0.00;;;;;;;;5058741;28;62017;-76
2022/05/26 12:10:24;;;;;;;;;1.00;0.00;;;;;;;;5059161;28;61819;-75
2022/05/26 12:12:49;;;;;;;;;0.00;0.00;;;;;;;;5057670;28;62139;-75
2022/05/26 12:15:14;;;;;;;;;0.00;0.00;;;;;;;;5059185;28;62029;-76
2022/05/26 12:18:06;;;;;;;;;0.00;0.00;;;;;;;;5041935;28;61832;-76
2022/05/26 12:20:33;;;;;;;;;0.00;0.00;;;;;;;;5040016;28;61811;-76
2022/05/26 12:23:05;;;;;;;;;0.00;0.00;;;;;;;;5058498;28;61878;-76
2022/05/26 12:25:35;;;;;;;;;0.00;0.00;;;;;;;;5103228;27;61774;-76
2022/05/26 12:28:26;;;;;;;;;0.00;0.00;;;;;;;;5105355;27;61678;-76
2022/05/26 12:30:52;;;;;;;;;0.00;0.00;;;;;;;;5104584;27;61790;-76
2022/05/26 12:33:18;;;;;;;;;0.00;0.00;;;;;;;;5105176;27;62866;-75
2022/05/26 12:36:02;;;;;;;;;0.33;0.33;;;;;;;;5103962;27;61774;-76
2022/05/26 12:38:27;;;;;;;;;0.67;0.00;;;;;;;;5103825;27;61971;-76
2022/05/26 12:41:07;;;;;;;;;1.67;0.00;;;;;;;;5105370;27;61649;-76
2022/05/26 12:43:47;;;;;;;;;0.00;0.00;;;;;;;;5104776;27;61691;-76
2022/05/26 12:46:16;;;;;;;;;1.00;1.00;;;;;;;;5104155;27;61764;-75
2022/05/26 12:48:53;;;;;;;;;1.00;1.00;;;;;;;;5105433;27;61924;-76
2022/05/26 12:51:20;;;;;;;;;0.00;0.00;;;;;;;;5105694;27;61902;-75
2022/05/26 12:53:50;;;;;;;;;0.67;0.00;;;;;;;;5104313;27;62534;-75
2022/05/26 12:56:33;;;;;;;;;0.00;0.00;;;;;;;;5086315;27;61810;-75
2022/05/26 12:58:59;;;;;;;;;0.00;0.00;;;;;;;;5105317;27;61969;-75
2022/05/26 13:01:25;;;;;;;;;0.00;0.00;;;;;;;;5104180;27;61840;-76
2022/05/26 13:03:51;;;;;;;;;0.00;0.00;;;;;;;;5103018;27;64820;-76
2022/05/26 13:06:22;;;;;;;;;1.00;1.00;;;;;;;;5105164;27;61717;-75
2022/05/26 13:08:50;;;;;;;;;1.00;0.00;;;;;;;;5104972;27;61753;-75
2022/05/26 13:11:18;;;;;;;;;0.00;0.00;;;;;;;;5105625;27;61888;-76
2022/05/26 13:13:51;;;;;;;;;1.33;0.33;;;;;;;;5125195;27;62053;-76
2022/05/26 13:16:21;;;;;;;;;0.00;0.00;;;;;;;;5125437;27;61675;-76
2022/05/26 13:18:47;;;;;;;;;0.00;0.00;;;;;;;;5125487;27;61748;-76
2022/05/26 13:21:16;;;;;;;;;0.00;0.00;;;;;;;;5124399;27;61747;-76
2022/05/26 13:23:41;;;;;;;;;0.00;0.00;;;;;;;;5125019;27;61676;-76
2022/05/26 13:26:06;;;;;;;;;0.00;0.00;;;;;;;;5123388;27;61851;-76
2022/05/26 13:28:33;;;;;;;;;0.00;0.00;;;;;;;;5125127;27;61941;-75
2022/05/26 13:33:44;;;;;;;;;0.00;0.00;;;;;;;;5124654;27;61755;-76
2022/05/26 13:36:19;;;;;;;;;0.00;0.00;;;;;;;;5124363;27;61741;-76
2022/05/26 13:38:48;;;;;;;;;1.00;0.00;;;;;;;;5124862;27;61917;-77
2022/05/26 13:41:32;;;;;;;;;0.00;0.00;;;;;;;;5123422;27;62182;-75
2022/05/26 13:44:01;;;;;;;;;0.00;0.00;;;;;;;;5124481;27;61882;-75
2022/05/26 13:46:26;;;;;;;;;0.00;0.00;;;;;;;;5124976;27;61898;-76
2022/05/26 13:48:55;;;;;;;;;0.00;0.00;;;;;;;;5125024;27;61784;-76
2022/05/26 13:51:27;;;;;;;;;0.00;0.00;;;;;;;;5124175;27;61788;-75
2022/05/26 13:53:52;;;;;;;;;0.00;0.00;;;;;;;;5124020;27;62015;-75
2022/05/26 13:56:23;;;;;;;;;0.00;0.00;;;;;;;;5123101;27;61794;-76
2022/05/26 13:58:48;;;;;;;;;0.00;0.00;;;;;;;;5124981;27;61776;-76
2022/05/26 14:01:14;;;;;;;;;0.00;0.00;;;;;;;;5125124;27;62023;-76
2022/05/26 14:03:41;;;;;;;;;0.00;0.00;;;;;;;;5124373;27;62868;-75
2022/05/26 14:06:26;;;;;;;;;0.00;0.00;;;;;;;;5124759;27;61793;-76
2022/05/26 14:08:53;;;;;;;;;0.00;0.00;;;;;;;;5124150;27;62001;-76
2022/05/26 14:11:28;;;;;;;;;0.00;0.00;;;;;;;;5124589;27;61856;-76
2022/05/26 14:13:54;;;;;;;;;0.00;0.00;;;;;;;;5122661;27;64607;-75
2022/05/26 14:16:21;;;;;;;;;0.00;0.00;;;;;;;;5124408;27;61859;-75
2022/05/26 14:18:57;;;;;;;;;0.00;0.00;;;;;;;;5124756;27;61755;-76
2022/05/26 14:21:26;;;;;;;;;1.00;0.00;;;;;;;;5125002;27;61816;-76
2022/05/26 14:24:03;;;;;;;;;0.00;0.00;;;;;;;;5123416;27;61995;-76
2022/05/26 14:26:28;;;;;;;;;0.00;0.00;;;;;;;;5124249;27;61972;-76
2022/05/26 14:28:54;;;;;;;;;0.00;0.00;;;;;;;;5124287;27;61984;-76
2022/05/26 14:31:23;;;;;;;;;0.33;0.33;;;;;;;;5124876;27;62071;-76
2022/05/26 14:34:00;;;;;;;;;0.00;0.00;;;;;;;;5123823;27;61737;-76
2022/05/26 14:36:27;;;;;;;;;0.00;0.00;;;;;;;;5124261;27;62058;-76
2022/05/26 14:38:52;;;;;;;;;0.00;0.00;;;;;;;;5122306;27;61939;-76
2022/05/26 14:41:17;;;;;;;;;0.00;0.00;;;;;;;;5122739;27;61697;-75
2022/05/26 14:43:45;;;;;;;;;0.00;0.00;;;;;;;;5123712;27;61884;-76
2022/05/26 14:46:11;;;;;;;;;0.00;0.00;;;;;;;;5124086;27;61788;-76
2022/05/26 14:48:36;;;;;;;;;0.00;0.00;;;;;;;;5124255;27;61831;-73
2022/05/26 14:51:01;;;;;;;;;0.00;0.00;;;;;;;;5122834;27;62232;-73
2022/05/26 14:56:11;;;;;;;;;0.00;0.00;;;;;;;;5123226;27;62025;-75
2022/05/26 14:58:36;;;;;;;;;0.00;0.00;;;;;;;;5122522;27;61877;-76
2022/05/26 15:01:02;;;;;;;;;0.33;0.33;;;;;;;;5123872;27;61778;-76
2022/05/26 15:03:27;;;;;;;;;0.00;0.00;;;;;;;;5123479;27;62064;-76
2022/05/26 15:05:53;;;;;;;;;0.00;0.00;;;;;;;;5124004;27;61781;-76
2022/05/26 15:08:26;;;;;;;;;0.00;0.00;;;;;;;;5123486;27;61966;-76
2022/05/26 15:10:51;;;;;;;;;0.00;0.00;;;;;;;;5123661;27;61758;-76
2022/05/26 15:13:16;;;;;;;;;0.00;0.00;;;;;;;;5122537;27;62786;-76
2022/05/26 15:15:42;;;;;;;;;0.00;0.00;;;;;;;;5123708;27;61832;-75
2022/05/26 15:18:07;;;;;;;;;1.67;0.67;;;;;;;;5123601;27;61756;-75
2022/05/26 15:20:32;;;;;;;;;2.67;0.00;;;;;;;;5122310;27;62036;-76
2022/05/26 15:22:58;;;;;;;;;0.00;0.00;;;;;;;;5122892;27;61909;-76
2022/05/26 15:25:23;;;;;;;;;1.00;0.00;;;;;;;;5123717;27;61990;-76
2022/05/26 15:27:48;;;;;;;;;0.00;0.00;;;;;;;;5123426;27;62322;-75
2022/05/26 15:30:15;;;;;;;;;0.00;0.00;;;;;;;;5123525;27;62444;-76
2022/05/26 15:32:41;;;;;;;;;0.00;0.00;;;;;;;;5123234;27;61894;-76
2022/05/26 15:35:09;;;;;;;;;0.00;0.00;;;;;;;;5123003;27;61810;-76